Time;durP1;ratioP1;P1;durP2;ratioP2;P2;SDS_P1;SDS_P2;PMS_P1;PMS_P2;Temp;Humidity;BMP_temperature;BMP_pressure;BME280_temperature;BME280_humidity;BME280_pressure;Samples;Min_cycle;Max_cycle;Signal;HPM_P1;HPM_P2
2023/05/26 00:00:12;;;;;;;6.22;3.78;;;;;;;17.64;54.43;100155.56;334408;28;18326;-79
2023/05/26 00:00:24;;;;;;;6.22;3.75;;;;;;;17.64;54.20;100155.56;334675;28;18631;-78
2023/05/26 00:00:36;;;;;;;6.03;3.65;;;;;;;17.64;54.31;100155.56;338316;28;4996;-78
2023/05/26 00:00:48;;;;;;;6.47;3.45;;;;;;;17.63;54.06;100151.25;334910;28;18119;-79
2023/05/26 00:01:01;;;;;;;7.72;3.40;;;;;;;17.60;54.17;100154.88;337849;28;4523;-78
2023/05/26 00:01:16;;;;;;;7.68;3.50;;;;;;;17.61;54.45;100150.47;335246;28;19639;-78
2023/05/26 00:01:28;;;;;;;4.80;3.70;;;;;;;17.58;54.25;100149.69;336137;28;17763;-78
2023/05/26 00:01:46;;;;;;;4.78;3.63;;;;;;;17.57;54.51;100155.88;338740;28;5880;-78
2023/05/26 00:01:58;;;;;;;6.22;3.50;;;;;;;17.60;54.41;100156.66;336040;28;18089;-79
2023/05/26 00:02:10;;;;;;;8.02;3.55;;;;;;;17.61;54.26;100155.75;337594;28;4487;-79
2023/05/26 00:02:24;;;;;;;9.02;3.70;;;;;;;17.62;54.49;100158.25;338888;28;5338;-79
2023/05/26 00:02:39;;;;;;;7.70;3.78;;;;;;;17.63;54.65;100152.09;334545;28;18175;-79
2023/05/26 00:02:51;;;;;;;8.88;3.90;;;;;;;17.63;54.95;100159.13;335447;28;17881;-78
2023/05/26 00:03:04;;;;;;;9.00;3.80;;;;;;;17.64;54.99;100155.56;335777;28;18137;-79
2023/05/26 00:03:17;;;;;;;7.50;3.70;;;;;;;17.64;54.80;100158.19;337359;28;4662;-79
2023/05/26 00:03:29;;;;;;;6.88;3.40;;;;;;;17.65;54.90;100157.28;335496;28;17619;-79
2023/05/26 00:03:48;;;;;;;4.88;3.20;;;;;;;17.65;55.25;100152.84;339783;28;4522;-78
2023/05/26 00:04:01;;;;;;;5.95;3.53;;;;;;;17.66;55.45;100154.53;335904;28;15876;-78
2023/05/26 00:04:16;;;;;;;7.55;3.65;;;;;;;17.68;55.12;100151.84;335279;28;9078;-78
2023/05/26 00:04:29;;;;;;;7.00;3.58;;;;;;;17.68;54.74;100157.09;336137;28;17842;-78
2023/05/26 00:04:43;;;;;;;6.78;3.47;;;;;;;17.68;54.88;100157.09;339517;28;5064;-78
2023/05/26 00:04:58;;;;;;;7.43;3.55;;;;;;;17.69;54.59;100158.81;336352;28;18165;-78
2023/05/26 00:05:10;;;;;;;6.90;3.53;;;;;;;17.70;54.64;100160.50;334496;28;16875;-78
2023/05/26 00:05:22;;;;;;;6.70;3.80;;;;;;;17.69;55.19;100157.00;338645;28;4682;-78
2023/05/26 00:05:39;;;;;;;6.20;4.00;;;;;;;17.68;56.05;100157.09;334739;28;17954;-78
2023/05/26 00:05:53;;;;;;;6.45;3.78;;;;;;;17.71;55.61;100162.19;333726;28;17690;-79
2023/05/26 00:06:10;;;;;;;6.82;3.80;;;;;;;17.71;55.60;100156.94;332902;29;18305;-79
2023/05/26 00:06:22;;;;;;;7.80;3.90;;;;;;;17.71;55.69;100157.78;336494;28;16125;-79
2023/05/26 00:06:34;;;;;;;8.07;3.83;;;;;;;17.72;56.00;100158.63;336948;28;17996;-78
2023/05/26 00:06:52;;;;;;;8.02;3.70;;;;;;;17.73;55.54;100166.44;339866;28;5025;-78
2023/05/26 00:07:04;;;;;;;6.70;3.70;;;;;;;17.75;55.14;100163.72;335870;28;17773;-78
2023/05/26 00:07:16;;;;;;;6.38;3.75;;;;;;;17.76;55.63;100165.41;339021;28;4837;-78
2023/05/26 00:07:28;;;;;;;5.93;3.65;;;;;;;17.76;55.38;100165.41;335685;28;17851;-78
2023/05/26 00:07:41;;;;;;;6.25;3.50;;;;;;;17.75;55.05;100164.56;339570;28;4516;-78
2023/05/26 00:07:53;;;;;;;5.97;3.55;;;;;;;17.76;55.07;100162.78;337190;28;8984;-78
2023/05/26 00:08:06;;;;;;;5.78;3.60;;;;;;;17.76;55.01;100166.25;339560;28;5062;-78
2023/05/26 00:08:18;;;;;;;7.15;3.55;;;;;;;17.77;55.14;100161.88;338835;28;19107;-78
2023/05/26 00:08:30;;;;;;;7.72;3.67;;;;;;;17.76;55.57;100166.25;339284;28;5386;-78
2023/05/26 00:08:42;;;;;;;8.90;3.80;;;;;;;17.76;55.71;100160.16;339315;28;5189;-79
2023/05/26 00:08:54;;;;;;;7.80;4.00;;;;;;;17.75;55.94;100154.06;335102;28;18854;-79
2023/05/26 00:09:06;;;;;;;7.70;3.90;;;;;;;17.75;55.57;100156.69;337444;28;4787;-78
2023/05/26 00:09:20;;;;;;;7.45;4.00;;;;;;;17.77;55.41;100161.88;337266;28;16714;-78
2023/05/26 00:09:32;;;;;;;6.38;3.78;;;;;;;17.76;55.50;100160.16;340472;28;5041;-78
2023/05/26 00:09:44;;;;;;;6.10;3.70;;;;;;;17.76;55.88;100166.25;337553;28;18243;-78
2023/05/26 00:09:56;;;;;;;6.05;3.83;;;;;;;17.78;55.94;100166.19;340280;28;5173;-78
2023/05/26 00:10:09;;;;;;;6.43;4.13;;;;;;;17.80;56.08;100166.94;336143;28;16461;-78
2023/05/26 00:10:21;;;;;;;7.20;4.25;;;;;;;17.81;56.04;100159.88;336855;28;4666;-78
2023/05/26 00:10:33;;;;;;;7.72;4.00;;;;;;;17.80;56.22;100164.31;335144;28;5243;-78
2023/05/26 00:10:48;;;;;;;7.10;3.90;;;;;;;17.81;56.25;100160.75;337311;28;4523;-78
2023/05/26 00:11:00;;;;;;;5.32;3.60;;;;;;;17.83;55.81;100168.53;335787;28;17925;-78
2023/05/26 00:11:12;;;;;;;5.28;3.67;;;;;;;17.83;55.99;100161.56;340342;28;4705;-78
2023/05/26 00:11:25;;;;;;;6.75;4.05;;;;;;;17.84;56.51;100165.88;337700;28;18395;-78
2023/05/26 00:11:37;;;;;;;8.70;4.07;;;;;;;17.85;56.17;100164.94;340928;28;4527;-79
2023/05/26 00:11:49;;;;;;;8.05;3.88;;;;;;;17.84;56.36;100165.88;336275;28;18429;-79
2023/05/26 00:12:01;;;;;;;7.35;3.80;;;;;;;17.84;56.44;100160.63;336777;28;4555;-79
2023/05/26 00:12:13;;;;;;;7.65;3.80;;;;;;;17.86;56.50;100171.91;334510;28;11064;-79
2023/05/26 00:12:25;;;;;;;8.30;3.80;;;;;;;17.84;56.14;100168.50;336800;28;4837;-78
2023/05/26 00:12:37;;;;;;;7.57;3.75;;;;;;;17.84;55.34;100162.41;337665;28;5311;-79
2023/05/26 00:12:50;;;;;;;6.25;3.90;;;;;;;17.78;54.67;100163.53;335989;28;18182;-79
2023/05/26 00:13:02;;;;;;;6.55;3.90;;;;;;;17.79;55.10;100167.88;338183;28;4573;-78
2023/05/26 00:13:15;;;;;;;7.20;3.92;;;;;;;17.80;55.06;100166.94;335792;28;18214;-78
2023/05/26 00:13:27;;;;;;;6.55;3.83;;;;;;;17.80;55.51;100166.94;338736;28;4514;-78
2023/05/26 00:13:39;;;;;;;5.10;3.63;;;;;;;17.80;56.17;100174.81;334719;28;18267;-78
2023/05/26 00:13:51;;;;;;;5.35;3.63;;;;;;;17.81;55.98;100171.28;338481;28;4528;-78
2023/05/26 00:14:03;;;;;;;6.47;3.95;;;;;;;17.82;55.63;100165.06;336464;28;10845;-79
2023/05/26 00:14:15;;;;;;;7.68;4.03;;;;;;;17.82;55.46;100167.69;339817;28;5011;-79
2023/05/26 00:14:27;;;;;;;10.02;4.20;;;;;;;17.83;56.21;100171.19;340494;28;4530;-78
2023/05/26 00:14:39;;;;;;;9.85;4.05;;;;;;;17.81;56.56;100167.78;338711;28;18337;-78
2023/05/26 00:14:51;;;;;;;7.55;3.95;;;;;;;17.83;56.48;100166.81;338555;28;4485;-78
2023/05/26 00:15:04;;;;;;;6.70;3.78;;;;;;;17.83;56.42;100169.44;335131;28;16170;-78
2023/05/26 00:15:16;;;;;;;6.30;3.83;;;;;;;17.84;56.29;100168.50;336515;28;5021;-79
2023/05/26 00:15:29;;;;;;;5.95;3.83;;;;;;;17.83;56.92;100166.81;335037;28;16606;-78
2023/05/26 00:15:41;;;;;;;5.72;3.92;;;;;;;17.85;56.94;100164.09;338272;28;4494;-78
2023/05/26 00:15:53;;;;;;;5.53;3.83;;;;;;;17.85;56.79;100169.34;336115;28;7022;-78
2023/05/26 00:16:05;;;;;;;5.78;3.97;;;;;;;17.86;56.72;100161.38;337933;28;4515;-78
2023/05/26 00:16:17;;;;;;;6.60;4.15;;;;;;;17.86;56.46;100165.78;338384;28;5252;-78
2023/05/26 00:16:30;;;;;;;6.28;4.05;;;;;;;17.87;56.93;100167.50;334727;28;18107;-79
2023/05/26 00:16:43;;;;;;;5.68;3.75;;;;;;;17.85;56.62;100162.31;336242;28;4535;-78
2023/05/26 00:16:55;;;;;;;6.65;3.75;;;;;;;17.85;56.89;100167.59;333979;28;18850;-79
2023/05/26 00:17:07;;;;;;;7.18;3.90;;;;;;;17.86;57.07;100169.28;337397;28;4718;-79
2023/05/26 00:17:20;;;;;;;9.32;4.03;;;;;;;17.87;57.06;100168.34;333507;28;17056;-79
2023/05/26 00:17:32;;;;;;;8.45;4.00;;;;;;;17.88;56.82;100162.13;336547;28;4477;-79
2023/05/26 00:17:47;;;;;;;7.65;3.92;;;;;;;17.89;56.54;100163.84;333197;28;17924;-79
2023/05/26 00:18:01;;;;;;;6.97;3.90;;;;;;;17.89;55.43;100166.47;334919;28;17732;-79
2023/05/26 00:18:13;;;;;;;7.38;3.90;;;;;;;17.88;55.62;100170.03;335348;28;10905;-78
2023/05/26 00:18:26;;;;;;;7.03;3.80;;;;;;;17.85;55.24;100164.94;340255;28;4583;-78
2023/05/26 00:18:38;;;;;;;6.25;3.67;;;;;;;17.82;54.36;100161.59;336583;28;10103;-78
2023/05/26 00:18:50;;;;;;;6.03;3.67;;;;;;;17.77;54.47;100167.13;339076;28;4496;-78
2023/05/26 00:19:05;;;;;;;5.50;3.60;;;;;;;17.80;55.21;100172.19;338801;28;4598;-78
2023/05/26 00:19:19;;;;;;;4.40;3.53;;;;;;;17.81;55.08;100163.41;334571;28;17531;-78
2023/05/26 00:19:35;;;;;;;5.05;3.63;;;;;;;17.80;54.96;100172.19;336272;28;17852;-78
2023/05/26 00:19:49;;;;;;;7.50;3.97;;;;;;;17.81;55.24;100166.03;337141;28;17789;-78
2023/05/26 00:20:01;;;;;;;8.02;4.00;;;;;;;17.79;55.82;100160.00;337107;28;18773;-78
2023/05/26 00:20:13;;;;;;;8.85;4.10;;;;;;;17.80;56.50;100169.56;339283;28;5599;-79
2023/05/26 00:20:26;;;;;;;9.10;4.35;;;;;;;17.81;55.80;100163.41;337341;28;20151;-79
2023/05/26 00:20:39;;;;;;;8.00;4.38;;;;;;;17.81;55.73;100168.66;340123;28;4506;-79
2023/05/26 00:20:54;;;;;;;8.67;4.60;;;;;;;17.81;55.89;100168.66;338996;28;18211;-78
2023/05/26 00:21:06;;;;;;;6.77;4.40;;;;;;;17.82;55.18;100165.06;338060;28;18018;-78
2023/05/26 00:21:18;;;;;;;5.95;4.13;;;;;;;17.80;55.96;100166.94;337350;28;16651;-78
2023/05/26 00:21:30;;;;;;;5.88;4.00;;;;;;;17.80;56.40;100166.94;339082;28;5155;-79
2023/05/26 00:21:42;;;;;;;7.22;4.00;;;;;;;17.79;56.23;100170.53;338088;28;4816;-78
2023/05/26 00:21:54;;;;;;;8.73;3.97;;;;;;;17.81;55.88;100166.03;335799;28;18222;-79
2023/05/26 00:22:07;;;;;;;8.95;3.88;;;;;;;17.81;55.57;100163.41;338704;28;5420;-79
2023/05/26 00:22:19;;;;;;;8.95;3.95;;;;;;;17.80;55.96;100169.56;334944;28;5468;-79
2023/05/26 00:22:31;;;;;;;7.35;3.80;;;;;;;17.78;56.44;100167.00;337218;28;5027;-78
2023/05/26 00:22:44;;;;;;;8.00;3.90;;;;;;;17.80;56.30;100160.84;334346;28;4532;-78
2023/05/26 00:22:56;;;;;;;6.93;3.88;;;;;;;17.81;55.75;100171.28;336159;28;4615;-79
2023/05/26 00:23:08;;;;;;;6.95;3.83;;;;;;;17.82;55.87;100170.34;334650;28;4638;-78
2023/05/26 00:23:20;;;;;;;6.55;3.70;;;;;;;17.82;56.16;100167.69;335833;28;17429;-79
2023/05/26 00:23:32;;;;;;;7.07;3.85;;;;;;;17.82;55.65;100159.81;338540;28;4494;-79
2023/05/26 00:23:44;;;;;;;6.50;3.75;;;;;;;17.77;55.17;100157.44;335655;28;18087;-79
2023/05/26 00:23:56;;;;;;;6.82;3.72;;;;;;;17.80;55.33;100166.94;337506;28;4541;-79
2023/05/26 00:24:08;;;;;;;5.70;3.70;;;;;;;17.82;54.92;100172.13;334797;28;16035;-79
2023/05/26 00:24:20;;;;;;;5.95;3.67;;;;;;;17.84;55.25;100172.91;335308;28;4496;-79
2023/05/26 00:24:33;;;;;;;6.07;3.70;;;;;;;17.84;55.25;100168.50;337583;28;4578;-79
2023/05/26 00:24:46;;;;;;;5.55;3.63;;;;;;;17.84;55.38;100168.50;335315;28;16779;-78
2023/05/26 00:24:58;;;;;;;6.13;3.80;;;;;;;17.86;55.31;100171.06;337333;28;4693;-79
2023/05/26 00:25:10;;;;;;;5.57;3.78;;;;;;;17.86;55.53;100171.91;338586;28;18096;-78
2023/05/26 00:25:22;;;;;;;6.35;4.05;;;;;;;17.87;55.63;100167.50;340422;28;4919;-79
2023/05/26 00:25:34;;;;;;;7.07;3.92;;;;;;;17.85;55.36;100172.84;337325;28;17987;-79
2023/05/26 00:25:48;;;;;;;7.50;3.80;;;;;;;17.83;55.39;100161.56;339938;28;4692;-79
2023/05/26 00:26:00;;;;;;;7.22;3.70;;;;;;;17.83;54.98;100166.81;339245;28;16344;-78
2023/05/26 00:26:13;;;;;;;6.55;3.70;;;;;;;17.83;55.09;100164.19;342502;28;4665;-79
2023/05/26 00:26:25;;;;;;;7.13;3.65;;;;;;;17.82;55.31;100165.06;339634;28;18105;-79
2023/05/26 00:26:37;;;;;;;7.43;3.65;;;;;;;17.83;55.54;100161.56;340338;28;5111;-79
2023/05/26 00:26:49;;;;;;;7.00;3.60;;;;;;;17.83;55.33;100166.81;337119;28;18543;-78
2023/05/26 00:27:01;;;;;;;6.72;3.58;;;;;;;17.84;55.66;100173.75;339978;28;4583;-78
2023/05/26 00:27:13;;;;;;;7.45;3.72;;;;;;;17.83;55.72;100166.81;337594;28;11457;-78
2023/05/26 00:27:25;;;;;;;7.38;3.95;;;;;;;17.82;55.81;100165.06;340385;28;4564;-79
2023/05/26 00:27:37;;;;;;;8.10;4.10;;;;;;;17.81;55.68;100173.91;338885;28;5454;-79
2023/05/26 00:27:50;;;;;;;8.00;4.00;;;;;;;17.82;56.17;100170.34;335852;28;18100;-79
2023/05/26 00:28:02;;;;;;;8.60;3.85;;;;;;;17.80;56.12;100166.94;337709;28;4526;-79
2023/05/26 00:28:14;;;;;;;7.38;3.92;;;;;;;17.81;56.01;100167.78;335350;28;18029;-78
2023/05/26 00:28:26;;;;;;;6.78;4.07;;;;;;;17.80;56.81;100166.94;337575;28;4537;-79
2023/05/26 00:28:38;;;;;;;7.18;4.10;;;;;;;17.80;56.67;100166.94;337038;28;4649;-79
2023/05/26 00:28:50;;;;;;;7.97;3.97;;;;;;;17.78;55.78;100169.66;340538;28;4791;-79
2023/05/26 00:29:02;;;;;;;7.43;3.70;;;;;;;17.80;56.25;100166.94;340107;28;4561;-79
2023/05/26 00:29:15;;;;;;;6.40;3.45;;;;;;;17.79;55.83;100170.53;337234;28;18371;-78
2023/05/26 00:29:41;;;;;;;7.65;3.88;;;;;;;17.79;56.48;100170.53;336604;28;17578;-78
2023/05/26 00:29:53;;;;;;;7.57;3.83;;;;;;;17.79;56.09;100170.53;338538;28;5362;-78
2023/05/26 00:30:05;;;;;;;7.20;3.78;;;;;;;17.79;56.15;100167.88;335321;28;18379;-78
2023/05/26 00:30:17;;;;;;;5.97;3.50;;;;;;;17.80;56.06;100171.34;339753;28;4537;-78
2023/05/26 00:30:29;;;;;;;6.93;3.58;;;;;;;17.80;55.84;100166.94;337765;28;17870;-79
2023/05/26 00:30:41;;;;;;;7.68;3.50;;;;;;;17.81;55.93;100175.66;340798;28;4576;-79
2023/05/26 00:30:53;;;;;;;7.05;3.60;;;;;;;17.82;55.79;100169.50;337796;28;8864;-78
2023/05/26 00:31:06;;;;;;;6.80;3.75;;;;;;;17.81;55.83;100173.03;338926;28;4745;-78
2023/05/26 00:31:18;;;;;;;5.85;3.78;;;;;;;17.77;55.81;100172.38;339915;28;4555;-78
2023/05/26 00:31:30;;;;;;;6.55;3.55;;;;;;;17.75;55.73;100164.56;335784;28;18028;-78
2023/05/26 00:31:42;;;;;;;7.05;3.63;;;;;;;17.75;55.94;100169.00;338969;28;4506;-78
2023/05/26 00:31:54;;;;;;;8.45;4.20;;;;;;;17.74;55.29;100168.13;336222;28;18020;-79
2023/05/26 00:32:06;;;;;;;8.68;4.38;;;;;;;17.73;55.24;100166.44;339975;28;5292;-78
2023/05/26 00:32:18;;;;;;;8.95;4.43;;;;;;;17.73;55.44;100165.59;337072;28;4563;-78
2023/05/26 00:32:30;;;;;;;9.30;4.20;;;;;;;17.73;55.25;100165.59;338622;28;5281;-79
2023/05/26 00:32:42;;;;;;;9.32;3.97;;;;;;;17.73;56.33;100170.84;338717;28;4517;-78
2023/05/26 00:32:54;;;;;;;7.78;3.75;;;;;;;17.71;56.71;100167.47;337004;28;8994;-78
2023/05/26 00:33:06;;;;;;;7.95;3.85;;;;;;;17.70;55.95;100166.59;340266;28;4479;-79
2023/05/26 00:33:19;;;;;;;6.00;4.00;;;;;;;17.72;55.64;100169.13;338366;28;19347;-79
2023/05/26 00:33:31;;;;;;;5.90;3.95;;;;;;;17.70;56.02;100176.25;341394;28;5588;-78
2023/05/26 00:33:43;;;;;;;6.32;4.00;;;;;;;17.71;56.24;100167.47;341456;28;4675;-79
2023/05/26 00:33:55;;;;;;;6.47;4.07;;;;;;;17.70;56.14;100171.84;338587;28;18901;-79
2023/05/26 00:34:07;;;;;;;7.10;3.90;;;;;;;17.69;56.32;100172.78;341584;28;4482;-79
2023/05/26 00:34:19;;;;;;;7.25;3.70;;;;;;;17.70;55.99;100168.38;338229;28;16095;-78
2023/05/26 00:34:33;;;;;;;6.00;3.70;;;;;;;17.69;55.34;100164.06;341603;28;4668;-79
2023/05/26 00:34:45;;;;;;;6.05;3.80;;;;;;;17.65;55.25;100168.63;338219;28;18821;-79
2023/05/26 00:34:57;;;;;;;7.10;3.83;;;;;;;17.65;56.00;100173.03;339969;28;4598;-79
2023/05/26 00:35:09;;;;;;;7.43;3.80;;;;;;;17.63;56.22;100165.25;337071;28;18458;-78
2023/05/26 00:35:21;;;;;;;6.97;3.63;;;;;;;17.65;56.07;100170.41;340588;28;4489;-79
2023/05/26 00:35:36;;;;;;;6.35;3.63;;;;;;;17.65;55.60;100170.41;337893;28;4563;-79
2023/05/26 00:35:48;;;;;;;6.90;3.50;;;;;;;17.67;55.40;100168.56;336997;28;4843;-78
2023/05/26 00:36:00;;;;;;;6.43;3.60;;;;;;;17.67;55.56;100161.50;340448;28;4491;-78
2023/05/26 00:36:13;;;;;;;6.05;3.78;;;;;;;17.69;55.75;100169.31;340459;28;4678;-79
2023/05/26 00:36:25;;;;;;;6.00;3.83;;;;;;;17.68;55.43;100167.59;337116;28;17218;-78
2023/05/26 00:36:37;;;;;;;4.85;3.63;;;;;;;17.70;55.87;100165.75;340508;28;4568;-79
2023/05/26 00:36:49;;;;;;;5.25;3.55;;;;;;;17.71;55.81;100170.09;337473;28;18138;-79
2023/05/26 00:37:02;;;;;;;5.43;3.55;;;;;;;17.69;55.62;100164.91;338776;28;4563;-79
2023/05/26 00:37:14;;;;;;;6.20;3.67;;;;;;;17.69;55.79;100169.31;335355;28;17879;-79
2023/05/26 00:37:26;;;;;;;5.75;3.72;;;;;;;17.68;55.56;100173.72;339489;28;4553;-78
2023/05/26 00:37:38;;;;;;;7.28;3.97;;;;;;;17.68;55.71;100162.34;339666;28;7939;-78
2023/05/26 00:37:50;;;;;;;8.48;3.85;;;;;;;17.68;55.77;100164.97;336055;28;17918;-78
2023/05/26 00:38:02;;;;;;;8.90;3.88;;;;;;;17.66;55.83;100169.47;338061;28;4827;-78
2023/05/26 00:38:14;;;;;;;7.65;3.85;;;;;;;17.65;55.72;100167.78;332181;28;17918;-78
2023/05/26 00:38:26;;;;;;;6.18;3.70;;;;;;;17.64;56.01;100166.91;336400;28;4688;-79
2023/05/26 00:38:38;;;;;;;6.07;3.80;;;;;;;17.63;55.95;100170.50;338214;28;4534;-78
2023/05/26 00:38:50;;;;;;;6.72;3.78;;;;;;;17.63;55.76;100164.41;334301;28;17206;-79
2023/05/26 00:39:02;;;;;;;7.97;3.85;;;;;;;17.64;55.93;100166.06;338405;28;5162;-79
2023/05/26 00:39:14;;;;;;;9.68;3.95;;;;;;;17.62;56.08;100167.94;335634;28;18224;-79
2023/05/26 00:39:29;;;;;;;10.75;4.00;;;;;;;17.63;55.72;100169.66;339112;28;4607;-79
2023/05/26 00:39:41;;;;;;;7.22;3.55;;;;;;;17.63;56.08;100169.66;336016;28;17778;-78
2023/05/26 00:39:53;;;;;;;4.82;3.60;;;;;;;17.62;56.31;100162.69;336895;28;4565;-79
2023/05/26 00:40:06;;;;;;;5.70;3.95;;;;;;;17.61;56.36;100171.50;338625;28;5355;-78
2023/05/26 00:40:19;;;;;;;6.80;4.13;;;;;;;17.61;56.07;100166.25;337386;28;9844;-79
2023/05/26 00:40:32;;;;;;;8.88;4.03;;;;;;;17.62;56.32;100167.94;340143;28;4536;-79
2023/05/26 00:40:44;;;;;;;7.90;3.75;;;;;;;17.61;56.23;100166.25;337719;28;18208;-78
2023/05/26 00:40:56;;;;;;;9.07;3.80;;;;;;;17.62;56.07;100162.69;338417;28;5267;-78
2023/05/26 00:41:08;;;;;;;7.68;3.60;;;;;;;17.63;55.89;100159.13;336639;28;4606;-78
2023/05/26 00:41:20;;;;;;;6.45;3.45;;;;;;;17.63;55.59;100159.97;336559;28;19058;-78
2023/05/26 00:41:32;;;;;;;5.07;3.55;;;;;;;17.62;55.58;100160.91;336563;28;4583;-78
2023/05/26 00:41:44;;;;;;;5.88;3.80;;;;;;;17.62;55.85;100167.94;333996;28;18244;-79
2023/05/26 00:41:57;;;;;;;6.20;3.70;;;;;;;17.61;56.03;100171.50;335893;29;4566;-78
2023/05/26 00:42:09;;;;;;;6.18;3.55;;;;;;;17.62;55.67;100157.41;334206;28;18053;-78
2023/05/26 00:42:21;;;;;;;5.65;3.65;;;;;;;17.62;55.76;100162.69;339692;28;4547;-78
2023/05/26 00:42:33;;;;;;;6.18;3.80;;;;;;;17.61;55.91;100161.00;339336;28;4556;-79
2023/05/26 00:42:45;;;;;;;6.07;3.60;;;;;;;17.62;55.47;100162.69;337307;28;18179;-78
2023/05/26 00:42:57;;;;;;;6.47;3.63;;;;;;;17.61;55.74;100172.34;336667;28;4659;-78
2023/05/26 00:43:09;;;;;;;6.72;3.90;;;;;;;17.61;55.43;100155.75;335432;28;18190;-78
2023/05/26 00:43:21;;;;;;;5.63;3.85;;;;;;;17.57;55.69;100161.16;340707;28;4507;-78
2023/05/26 00:43:33;;;;;;;5.80;3.80;;;;;;;17.57;55.77;100158.53;340102;28;5092;-78
2023/05/26 00:43:45;;;;;;;6.85;3.78;;;;;;;17.57;56.08;100165.56;337533;28;18357;-78
2023/05/26 00:43:57;;;;;;;6.90;3.80;;;;;;;17.57;56.22;100166.41;340859;28;4561;-78
2023/05/26 00:44:11;;;;;;;7.25;3.63;;;;;;;17.57;56.02;100161.16;335270;28;19263;-78
2023/05/26 00:44:23;;;;;;;8.18;3.60;;;;;;;17.56;55.87;100162.06;337312;28;10066;-78
2023/05/26 00:44:35;;;;;;;8.13;3.53;;;;;;;17.56;55.96;100164.69;337911;28;6297;-78
2023/05/26 00:44:50;;;;;;;7.78;3.58;;;;;;;17.54;55.90;100166.56;339578;28;6771;-78
2023/05/26 00:45:03;;;;;;;6.20;3.40;;;;;;;17.53;56.01;100159.63;337400;28;17996;-78
2023/05/26 00:45:15;;;;;;;6.05;3.50;;;;;;;17.52;56.22;100162.31;337013;28;16250;-78
2023/05/26 00:45:27;;;;;;;6.75;3.55;;;;;;;17.50;56.35;100162.41;340127;28;4796;-78
2023/05/26 00:45:39;;;;;;;7.47;3.55;;;;;;;17.50;56.40;100162.41;336372;28;9986;-78
2023/05/26 00:45:51;;;;;;;6.25;3.40;;;;;;;17.49;56.28;100163.34;339740;28;4501;-78
2023/05/26 00:46:03;;;;;;;6.85;3.30;;;;;;;17.47;56.40;100162.56;339737;28;4556;-78
2023/05/26 00:46:15;;;;;;;7.43;3.55;;;;;;;17.46;56.69;100167.91;337876;28;18042;-78
2023/05/26 00:46:29;;;;;;;5.30;3.50;;;;;;;17.45;56.98;100158.34;340912;28;4585;-78
2023/05/26 00:46:41;;;;;;;6.15;3.60;;;;;;;17.45;56.73;100169.69;338819;28;18315;-79
2023/05/26 00:46:53;;;;;;;6.22;3.70;;;;;;;17.44;56.38;100164.50;341478;28;4513;-79
2023/05/26 00:47:05;;;;;;;7.22;4.00;;;;;;;17.43;56.72;100168.91;338720;28;18565;-78
2023/05/26 00:47:18;;;;;;;7.40;3.70;;;;;;;17.41;56.49;100170.78;341087;28;4568;-78
2023/05/26 00:47:30;;;;;;;8.75;3.58;;;;;;;17.38;56.28;100165.66;338719;28;16757;-79
2023/05/26 00:47:43;;;;;;;8.57;3.80;;;;;;;17.35;56.59;100160.59;341409;28;5723;-79
2023/05/26 00:47:55;;;;;;;6.65;3.83;;;;;;;17.29;56.35;100167.00;338519;28;18758;-78
2023/05/26 00:48:07;;;;;;;6.38;3.80;;;;;;;17.26;55.76;100166.31;341384;28;4496;-78
2023/05/26 00:48:20;;;;;;;7.03;4.03;;;;;;;17.24;55.86;100168.19;338373;28;17049;-78
2023/05/26 00:48:32;;;;;;;8.13;3.92;;;;;;;17.24;55.83;100162.91;341587;28;5332;-79
2023/05/26 00:48:44;;;;;;;7.80;3.80;;;;;;;17.24;55.79;100169.03;338964;28;18074;-78
2023/05/26 00:48:56;;;;;;;6.88;3.72;;;;;;;17.24;55.63;100169.03;341435;28;5303;-78
2023/05/26 00:49:10;;;;;;;4.88;3.50;;;;;;;17.24;55.66;100169.03;341554;28;4492;-78
2023/05/26 00:49:23;;;;;;;5.90;3.83;;;;;;;17.23;55.94;100158.63;337604;28;17714;-78
2023/05/26 00:49:35;;;;;;;6.45;3.90;;;;;;;17.22;56.87;100167.41;337907;28;18134;-78
2023/05/26 00:49:48;;;;;;;6.30;3.78;;;;;;;17.22;56.27;100167.41;341318;28;4470;-78
2023/05/26 00:50:01;;;;;;;6.00;3.58;;;;;;;17.22;56.52;100165.63;337203;28;18241;-78
2023/05/26 00:50:13;;;;;;;6.10;3.83;;;;;;;17.22;56.34;100173.50;339976;28;5021;-78
2023/05/26 00:50:27;;;;;;;7.15;3.90;;;;;;;17.24;57.17;100168.19;337079;28;18077;-78
2023/05/26 00:50:40;;;;;;;7.00;3.58;;;;;;;17.24;56.97;100173.44;337688;28;6017;-78
2023/05/26 00:50:53;;;;;;;5.75;3.42;;;;;;;17.22;57.39;100164.78;339800;28;5009;-78
2023/05/26 00:51:05;;;;;;;5.38;3.50;;;;;;;17.24;57.25;100168.19;337264;28;18178;-78
2023/05/26 00:51:17;;;;;;;5.63;3.60;;;;;;;17.23;57.18;100171.75;340882;28;4549;-78
2023/05/26 00:51:29;;;;;;;5.47;3.70;;;;;;;17.23;57.32;100167.34;338889;28;9656;-78
2023/05/26 00:51:43;;;;;;;5.97;3.63;;;;;;;17.24;57.15;100168.19;338998;28;5521;-78
2023/05/26 00:51:55;;;;;;;6.20;3.50;;;;;;;17.23;57.14;100169.97;336634;28;17530;-78
2023/05/26 00:52:07;;;;;;;5.10;3.40;;;;;;;17.24;56.94;100170.81;341451;28;4513;-78
2023/05/26 00:52:21;;;;;;;5.72;3.45;;;;;;;17.24;56.90;100169.03;338959;28;5340;-78
2023/05/26 00:52:34;;;;;;;5.53;3.45;;;;;;;17.24;56.83;100171.66;339607;28;4643;-78
2023/05/26 00:52:46;;;;;;;4.65;3.60;;;;;;;17.22;56.44;100170.88;335824;28;16736;-78
2023/05/26 00:53:00;;;;;;;4.85;3.60;;;;;;;17.21;56.48;100168.34;340308;28;5539;-79
2023/05/26 00:53:12;;;;;;;5.72;3.67;;;;;;;17.19;56.52;100171.06;337006;28;17952;-78
2023/05/26 00:53:24;;;;;;;5.40;3.60;;;;;;;17.17;56.97;100167.66;337300;28;16294;-78
2023/05/26 00:53:42;;;;;;;6.00;3.58;;;;;;;17.14;56.98;100166.03;338792;28;5396;-78
2023/05/26 00:53:54;;;;;;;7.40;3.58;;;;;;;17.13;57.19;100160.88;335100;28;17868;-78
2023/05/26 00:54:09;;;;;;;6.30;3.58;;;;;;;17.13;57.15;100172.22;335264;29;4555;-78
2023/05/26 00:54:21;;;;;;;4.83;3.60;;;;;;;17.11;57.32;100168.81;333397;28;18853;-78
2023/05/26 00:54:33;;;;;;;6.10;3.70;;;;;;;17.10;57.34;100161.88;335246;29;4635;-78
2023/05/26 00:54:45;;;;;;;6.25;3.50;;;;;;;17.09;57.46;100161.94;333561;29;18055;-78
2023/05/26 00:54:57;;;;;;;5.88;3.47;;;;;;;17.07;57.49;100166.44;336448;29;4492;-78
2023/05/26 00:55:10;;;;;;;4.82;3.50;;;;;;;17.06;57.39;100165.56;333097;28;18140;-78
2023/05/26 00:55:23;;;;;;;4.78;3.38;;;;;;;17.06;57.57;100164.72;337451;28;4524;-78
2023/05/26 00:55:35;;;;;;;4.90;3.20;;;;;;;17.05;57.90;100168.28;333489;28;17868;-79
2023/05/26 00:55:51;;;;;;;5.78;3.45;;;;;;;17.05;57.57;100161.25;336270;28;5324;-78
2023/05/26 00:56:03;;;;;;;7.53;3.90;;;;;;;17.04;57.67;100166.56;334622;28;18312;-79
2023/05/26 00:56:18;;;;;;;7.15;3.70;;;;;;;17.01;57.43;100167.59;336001;28;19505;-79
2023/05/26 00:56:31;;;;;;;5.90;3.55;;;;;;;16.99;57.65;100164.19;335751;28;18064;-79
2023/05/26 00:56:43;;;;;;;6.40;3.67;;;;;;;16.96;57.93;100153.84;339748;28;5354;-79
2023/05/26 00:56:56;;;;;;;8.02;3.80;;;;;;;16.95;57.36;100158.25;336265;28;17923;-79
2023/05/26 00:57:08;;;;;;;7.03;3.70;;;;;;;16.92;57.70;100160.16;340341;28;4497;-79
2023/05/26 00:57:20;;;;;;;6.38;3.67;;;;;;;16.93;57.52;100172.38;337086;28;19155;-79
2023/05/26 00:57:33;;;;;;;5.93;3.58;;;;;;;16.91;57.93;100161.13;339908;28;5321;-78
2023/05/26 00:57:45;;;;;;;6.07;3.42;;;;;;;16.92;58.24;100162.78;335367;28;4581;-78
2023/05/26 00:58:00;;;;;;;6.38;3.55;;;;;;;16.91;57.95;100155.84;338921;28;5080;-79
2023/05/26 00:58:12;;;;;;;6.72;3.90;;;;;;;16.93;58.17;100169.75;336438;28;17990;-78
2023/05/26 00:58:25;;;;;;;7.80;3.90;;;;;;;16.92;57.96;100158.41;337502;28;19089;-78
2023/05/26 00:58:38;;;;;;;6.35;3.70;;;;;;;16.92;57.92;100161.03;338239;28;4514;-78
2023/05/26 00:58:50;;;;;;;6.65;3.60;;;;;;;16.91;57.69;100166.38;335821;28;4861;-78
2023/05/26 00:59:05;;;;;;;7.05;3.55;;;;;;;16.89;57.62;100157.72;337754;28;4500;-78
2023/05/26 00:59:18;;;;;;;6.45;3.55;;;;;;;16.88;57.81;100162.13;337732;28;17948;-78
2023/05/26 00:59:31;;;;;;;6.28;3.70;;;;;;;16.86;58.32;100160.47;336585;28;18018;-78
2023/05/26 00:59:43;;;;;;;5.60;3.63;;;;;;;16.88;58.00;100161.25;338739;28;4649;-78
2023/05/26 00:59:56;;;;;;;5.25;3.50;;;;;;;16.87;58.19;100160.41;338093;28;17941;-78
2023/05/26 01:00:09;;;;;;;5.78;3.58;;;;;;;16.86;58.70;100165.72;341208;28;4505;-78